Meteo Giornale » Osservazioni meteo Spagna » Ciudad Real
ore: 16:30 - Osservazioni Meteo Ciudad Real
Lat. 38° 57' N Lon. 3° 44' W Alt. 629 metri s.l.m.
36 °C
Sereno
Temp. 24 Ore
15 °C
36 °C
Ovest
11.1 Km/h
Dew point 7 °C
Umidità 16 %
Visibilità 10 Km
Il sole sorge alle ore 07:43
Il sole tramonta alle ore 20:45
| Data e Ora | Cielo e Fenomeni | T °C | DP °C | Um. % | Pres. hPa | Vis. km | Vento km/h | |
|---|---|---|---|---|---|---|---|---|
| Oggi h: 16:30 | Sereno | 36 | 7 | 16 | 1018 | 10 | O 11.1 | |
| Oggi h: 16:00 | Sereno | 35 | 7 | 17 | 1018 | 10 | N 7.4 | |
| Oggi h: 15:30 | Sereno | 35 | 7 | 17 | 1019 | 10 | E/NE 7.4 | |
| Oggi h: 15:00 | Sereno | 35 | 8 | 19 | 1019 | 10 | O/NO 7.4 | |
| Oggi h: 14:30 | Sereno | 34 | 8 | 20 | 1019 | 10 | O/NO 7.4 | |
| Oggi h: 14:00 | Sereno | 33 | 7 | 19 | 1019 | 10 | N/NO 9.3 | |
| Oggi h: 13:30 | Sereno | 33 | 8 | 21 | 1020 | 10 | N 5.5 | |
| Oggi h: 13:00 | Sereno | 32 | 8 | 22 | 1020 | 10 | N 3.7 | |
| Oggi h: 12:30 | Sereno | 31 | 7 | 22 | 1020 | 10 | N 1.8 | |
| Oggi h: 12:00 | Sereno | 30 | 7 | 23 | 1020 | 10 | N 3.7 | |
| Oggi h: 11:30 | Sereno | 30 | 7 | 23 | 1020 | 10 | N 1.8 | |
| Oggi h: 11:00 | Sereno | 27 | 7 | 28 | 1020 | 10 | N 0 | |
| Oggi h: 10:30 | Sereno | 26 | 7 | 29 | 1020 | 10 | N 0 | |
| Oggi h: 10:00 | Sereno | 23 | 7 | 35 | 1020 | 10 | N 0 | |
| Oggi h: 09:30 | Sereno | 20 | 7 | 42 | 1020 | 10 | N 0 | |
| Oggi h: 09:00 | Sereno | 19 | 7 | 45 | 1020 | 10 | N 0 | |
| Oggi h: 08:30 | Sereno | 16 | 6 | 51 | 1020 | 10 | N 0 | |
| Oggi h: 08:00 | Sereno | 15 | 6 | 54 | 1019 | 10 | N 0 | |
| Oggi h: 07:30 | Sereno | 16 | 7 | 55 | 1019 | 10 | N 0 | |
| Oggi h: 07:00 | Sereno | 16 | 6 | 51 | 1019 | 10 | N 1.8 | |
| Ieri h: 23:00 | Sereno | 27 | 7 | 28 | 1019 | 10 | N 5.5 | |
| Ieri h: 22:30 | Sereno | 27 | 7 | 28 | 1018 | 10 | N 0 | |
| Ieri h: 22:00 | Sereno | 29 | 7 | 25 | 1018 | 10 | NO 7.4 | |
| Ieri h: 21:30 | Sereno | 27 | 6 | 26 | 1017 | 10 | N 0 | |
| Ieri h: 21:00 | Sereno | 29 | 6 | 23 | 1017 | 10 | N 0 | |
| Ieri h: 20:30 | Sereno | 33 | 7 | 19 | 1017 | 10 | N 5.5 | |
| Ieri h: 20:00 | Sereno | 35 | 6 | 16 | 1017 | 10 | N 5.5 | |
| Ieri h: 19:30 | Sereno | 35 | 7 | 17 | 1017 | 10 | N 5.5 | |
| Ieri h: 19:00 | Sereno | 35 | 5 | 15 | 1017 | 10 | N 5.5 | |
| Ieri h: 18:30 | Sereno | 35 | 5 | 15 | 1017 | 10 | O 9.3 | |
| Ieri h: 18:00 | Sereno | 35 | 7 | 17 | 1017 | 10 | O/SO 7.4 | |
| Ieri h: 17:30 | Sereno | 36 | 6 | 15 | 1017 | 10 | N/NO 7.4 | |
| Ieri h: 17:00 | Sereno | 35 | 5 | 15 | 1018 | 10 | SO 9.3 | |



